Time;durP1;ratioP1;P1;durP2;ratioP2;P2;SDS_P1;SDS_P2;PMS_P1;PMS_P2;Temp;Humidity;BMP_temperature;BMP_pressure;BME280_temperature;BME280_humidity;BME280_pressure;Samples;Min_cycle;Max_cycle;Signal;HPM_P1;HPM_P2
2021/11/07 00:02:31;;;;;;;5.93;3.03;;;12.10;95.20;;;;;;5050993;28;20062;-70
2021/11/07 00:05:03;;;;;;;6.97;2.70;;;12.10;95.20;;;;;;5050669;28;20021;-70
2021/11/07 00:07:42;;;;;;;6.40;3.05;;;12.10;95.20;;;;;;5051172;28;20359;-69
2021/11/07 00:10:22;;;;;;;6.38;3.42;;;12.10;95.20;;;;;;5050831;28;20037;-70
2021/11/07 00:12:50;;;;;;;6.97;2.97;;;12.10;95.20;;;;;;5050556;28;20049;-70
2021/11/07 00:15:17;;;;;;;5.38;2.60;;;12.10;95.20;;;;;;5050926;28;20037;-70
2021/11/07 00:17:51;;;;;;;5.15;2.65;;;12.20;95.20;;;;;;5049602;28;20037;-69
2021/11/07 00:20:28;;;;;;;4.63;2.78;;;12.10;95.20;;;;;;5050553;28;20029;-70
2021/11/07 00:23:06;;;;;;;10.30;2.63;;;12.10;95.20;;;;;;5050547;28;20037;-69
2021/11/07 00:28:06;;;;;;;5.53;2.35;;;12.10;95.30;;;;;;5050476;28;20451;-70
2021/11/07 00:33:20;;;;;;;6.93;2.70;;;12.20;95.30;;;;;;5052008;28;20044;-69
2021/11/07 00:38:29;;;;;;;6.63;3.15;;;12.10;95.40;;;;;;5054563;28;20463;-69
2021/11/07 00:43:47;;;;;;;9.07;3.50;;;12.10;95.40;;;;;;5054844;28;20032;-69
2021/11/07 00:49:09;;;;;;;5.78;3.42;;;12.00;95.50;;;;;;5053538;28;20033;-70
2021/11/07 00:59:10;;;;;;;7.18;3.17;;;12.00;95.90;;;;;;5054313;28;20545;-69
2021/11/07 01:01:40;;;;;;;9.23;3.88;;;12.00;95.80;;;;;;5052964;28;20041;-70
2021/11/07 01:04:10;;;;;;;5.22;3.20;;;12.00;95.80;;;;;;5053306;28;20083;-70
2021/11/07 01:06:36;;;;;;;7.88;3.42;;;12.00;95.80;;;;;;5054359;28;20040;-70
2021/11/07 01:09:03;;;;;;;6.97;2.75;;;12.00;95.70;;;;;;5054041;28;20346;-69
2021/11/07 01:11:29;;;;;;;7.53;2.75;;;12.00;95.70;;;;;;5053750;28;20053;-70
2021/11/07 01:13:55;;;;;;;4.85;2.60;;;12.00;95.70;;;;;;5053801;28;20037;-69
2021/11/07 01:16:22;;;;;;;5.45;2.55;;;12.00;95.80;;;;;;5054363;28;20029;-69
2021/11/07 01:18:47;;;;;;;4.75;2.22;;;12.00;95.80;;;;;;5053881;28;20025;-69
2021/11/07 01:21:15;;;;;;;5.70;2.53;;;12.10;95.80;;;;;;5053889;28;20055;-69
2021/11/07 01:23:45;;;;;;;11.37;2.87;;;12.00;95.90;;;;;;5053902;28;20044;-70
2021/11/07 01:26:19;;;;;;;4.07;2.58;;;12.00;96.00;;;;;;5053795;28;20032;-70
2021/11/07 01:28:57;;;;;;;6.32;2.63;;;12.00;96.00;;;;;;5053696;28;20021;-69
2021/11/07 01:31:24;;;;;;;;;;;11.90;96.00;;;;;;5054617;28;20021;-69
2021/11/07 01:33:52;;;;;;;6.10;2.50;;;11.90;96.10;;;;;;5053736;28;19909;-69
2021/11/07 01:39:38;;;;;;;4.03;2.35;;;11.80;96.30;;;;;;5053483;28;20136;-70
2021/11/07 01:44:08;;;;;;;7.60;2.50;;;11.80;96.40;;;;;;5053073;28;20025;-69
2021/11/07 01:46:34;;;;;;;5.72;2.08;;;11.80;96.40;;;;;;5052861;28;20027;-70
2021/11/07 01:49:07;;;;;;;5.85;2.10;;;11.80;96.40;;;;;;5053441;28;20036;-69
2021/11/07 01:51:33;;;;;;;5.00;2.33;;;11.80;96.50;;;;;;5053278;28;20033;-69
2021/11/07 01:54:22;;;;;;;4.60;2.03;;;11.90;96.70;;;;;;5053331;28;20033;-69
2021/11/07 01:56:48;;;;;;;4.57;1.90;;;11.80;96.70;;;;;;5053345;28;20025;-69
2021/11/07 01:59:14;;;;;;;5.50;2.03;;;11.80;96.70;;;;;;5052202;28;20418;-69
2021/11/07 02:01:40;;;;;;;7.40;2.25;;;11.80;96.70;;;;;;5053163;28;20195;-69
2021/11/07 02:04:05;;;;;;;2.20;1.80;;;11.80;96.70;;;;;;5053369;28;20040;-69
2021/11/07 02:06:31;;;;;;;3.40;2.00;;;11.80;96.80;;;;;;5053045;28;20037;-69
2021/11/07 02:08:57;;;;;;;4.32;1.60;;;11.80;96.70;;;;;;5052942;28;20506;-69
2021/11/07 02:11:29;;;;;;;3.72;1.50;;;11.80;96.90;;;;;;5051668;28;20560;-69
2021/11/07 02:13:54;;;;;;;2.67;1.40;;;11.70;96.80;;;;;;5052725;28;20051;-69
2021/11/07 02:16:21;;;;;;;1.17;1.00;;;11.70;96.80;;;;;;5053438;28;20381;-69
2021/11/07 02:18:47;;;;;;;2.63;1.50;;;11.60;97.00;;;;;;5052817;28;20067;-70
2021/11/07 02:21:13;;;;;;;2.45;1.30;;;11.80;97.30;;;;;;5052904;28;20033;-70
2021/11/07 02:23:39;;;;;;;2.92;0.90;;;11.70;97.40;;;;;;5051532;28;20036;-68
2021/11/07 02:26:05;;;;;;;3.35;1.42;;;11.70;97.50;;;;;;5052638;28;20029;-69
2021/11/07 02:28:35;;;;;;;2.20;1.30;;;11.70;97.70;;;;;;5051843;28;20258;-69
2021/11/07 02:31:03;;;;;;;2.95;1.08;;;11.60;97.80;;;;;;5051591;28;20029;-69
2021/11/07 02:33:29;;;;;;;;;;;11.60;97.90;;;;;;5052026;28;20037;-69
2021/11/07 02:35:55;;;;;;;1.60;1.10;;;11.60;97.80;;;;;;5061768;28;19918;-69
2021/11/07 02:38:21;;;;;;;3.67;1.33;;;11.60;97.90;;;;;;5072413;28;20500;-69
2021/11/07 02:40:47;;;;;;;1.67;1.25;;;11.60;97.80;;;;;;5072354;28;20114;-69
2021/11/07 02:43:12;;;;;;;2.70;0.90;;;11.60;97.90;;;;;;5072726;28;20074;-69
2021/11/07 02:45:38;;;;;;;0.80;0.80;;;11.60;97.70;;;;;;5072217;28;20028;-69
2021/11/07 02:48:04;;;;;;;4.00;0.93;;;11.60;97.70;;;;;;5072124;28;20040;-69
2021/11/07 02:50:30;;;;;;;1.80;0.90;;;11.60;97.60;;;;;;5072188;28;20050;-69
2021/11/07 02:52:55;;;;;;;1.77;1.10;;;11.70;97.70;;;;;;5070947;28;20051;-69
2021/11/07 02:55:22;;;;;;;1.58;0.88;;;11.60;97.60;;;;;;5071657;28;20028;-69
2021/11/07 02:57:53;;;;;;;0.75;0.75;;;11.60;97.70;;;;;;5071957;28;20111;-69
2021/11/07 03:00:21;;;;;;;1.10;0.73;;;11.60;97.90;;;;;;5071965;28;20120;-69
2021/11/07 03:02:47;;;;;;;1.00;0.60;;;11.60;97.80;;;;;;5071743;28;20033;-69
2021/11/07 03:05:13;;;;;;;1.88;0.88;;;11.50;97.80;;;;;;5071832;28;20107;-69
2021/11/07 03:07:42;;;;;;;0.70;0.70;;;11.50;97.80;;;;;;5071676;28;20043;-70
2021/11/07 03:10:11;;;;;;;1.30;0.85;;;11.60;97.80;;;;;;5072236;28;20021;-69
2021/11/07 03:12:37;;;;;;;1.98;0.65;;;11.60;97.80;;;;;;5071367;28;20181;-69
2021/11/07 03:15:05;;;;;;;2.45;0.90;;;11.50;97.80;;;;;;5071723;28;20028;-69
2021/11/07 03:17:31;;;;;;;1.85;0.77;;;11.60;97.90;;;;;;5071744;28;20106;-70
2021/11/07 03:19:56;;;;;;;1.35;0.70;;;11.60;97.80;;;;;;5071641;28;20070;-70
2021/11/07 03:22:26;;;;;;;3.65;1.00;;;11.50;97.90;;;;;;5072041;28;20029;-69
2021/11/07 03:24:54;;;;;;;0.82;0.73;;;11.50;97.80;;;;;;5071399;28;20028;-70
2021/11/07 03:27:37;;;;;;;1.20;0.80;;;11.60;97.90;;;;;;5071410;28;20488;-69
2021/11/07 03:30:13;;;;;;;1.48;0.93;;;11.50;97.90;;;;;;5071446;28;20043;-69
2021/11/07 03:32:41;;;;;;;2.85;1.35;;;11.50;97.90;;;;;;5071358;28;20105;-69
2021/11/07 03:35:15;;;;;;;0.93;0.80;;;11.50;98.00;;;;;;5070407;28;20020;-70
2021/11/07 03:37:45;;;;;;;1.48;1.00;;;11.60;98.00;;;;;;5071236;28;20473;-70
2021/11/07 03:40:12;;;;;;;1.70;1.08;;;11.50;98.00;;;;;;5071936;28;20105;-70
2021/11/07 03:42:38;;;;;;;2.90;1.10;;;11.50;98.00;;;;;;5071538;28;20025;-69
2021/11/07 03:45:06;;;;;;;1.27;1.13;;;11.60;98.10;;;;;;5071210;28;20047;-69
2021/11/07 03:47:31;;;;;;;3.17;1.10;;;11.60;98.00;;;;;;5071112;28;20033;-69
2021/11/07 03:49:58;;;;;;;2.72;1.13;;;11.60;98.10;;;;;;5071087;28;20097;-69
2021/11/07 03:52:24;;;;;;;0.90;0.88;;;11.70;98.00;;;;;;5071276;28;20035;-68
2021/11/07 03:54:49;;;;;;;1.52;0.82;;;11.60;98.00;;;;;;5071130;28;20393;-69
2021/11/07 03:57:15;;;;;;;1.00;1.00;;;11.70;98.00;;;;;;5071088;28;20093;-69
2021/11/07 03:59:45;;;;;;;1.02;0.93;;;11.60;98.50;;;;;;5071040;28;20078;-69
2021/11/07 04:02:12;;;;;;;1.30;1.20;;;11.60;98.20;;;;;;5070875;28;20097;-69
2021/11/07 04:04:39;;;;;;;1.83;1.35;;;11.60;98.20;;;;;;5070968;28;20025;-69
2021/11/07 04:07:05;;;;;;;1.45;1.10;;;11.60;98.20;;;;;;5071098;28;20020;-69
2021/11/07 04:09:31;;;;;;;1.33;1.23;;;11.70;98.40;;;;;;5069852;28;20021;-69
2021/11/07 04:11:56;;;;;;;2.15;1.20;;;11.60;98.40;;;;;;5070478;28;20040;-70
2021/11/07 04:14:22;;;;;;;1.00;0.90;;;11.60;98.50;;;;;;5070988;28;20455;-70
2021/11/07 04:16:48;;;;;;;1.67;0.95;;;11.60;98.50;;;;;;5070867;28;20078;-70
2021/11/07 04:19:13;;;;;;;1.98;1.15;;;11.60;98.80;;;;;;5071439;28;20052;-69
2021/11/07 04:21:42;;;;;;;1.50;1.30;;;11.60;98.70;;;;;;5070812;28;20496;-70
2021/11/07 04:24:08;;;;;;;1.30;1.20;;;11.60;98.80;;;;;;5070923;28;20029;-70
2021/11/07 04:26:33;;;;;;;2.72;1.20;;;11.60;98.90;;;;;;5069975;28;20408;-69
2021/11/07 04:28:59;;;;;;;1.13;1.02;;;11.60;99.00;;;;;;5069846;28;20447;-69
2021/11/07 04:31:25;;;;;;;2.30;1.40;;;11.60;98.90;;;;;;5070940;28;20029;-69
2021/11/07 04:33:50;;;;;;;1.30;1.10;;;11.70;99.10;;;;;;5070671;28;20108;-70
2021/11/07 04:36:16;;;;;;;1.95;1.45;;;11.60;99.10;;;;;;5069335;28;20048;-70
2021/11/07 04:38:42;;;;;;;1.70;1.60;;;11.70;99.20;;;;;;5070516;28;20040;-70
2021/11/07 04:41:15;;;;;;;4.10;1.58;;;11.50;99.40;;;;;;5070611;28;20112;-69
2021/11/07 04:43:45;;;;;;;2.58;1.80;;;11.60;99.70;;;;;;5070593;28;20028;-70
2021/11/07 04:46:14;;;;;;;3.05;1.65;;;11.60;99.70;;;;;;5069952;28;20060;-70
2021/11/07 04:48:46;;;;;;;2.47;1.80;;;11.60;99.70;;;;;;5070537;28;20070;-69
2021/11/07 04:51:11;;;;;;;2.97;2.10;;;11.60;99.70;;;;;;5070386;28;20036;-69
2021/11/07 04:53:38;;;;;;;2.92;2.00;;;11.50;99.70;;;;;;5070414;28;20357;-69
2021/11/07 04:56:04;;;;;;;2.60;2.40;;;11.60;99.80;;;;;;5070450;28;20455;-69
2021/11/07 04:58:30;;;;;;;2.25;1.90;;;11.50;99.80;;;;;;5070807;28;20021;-70
2021/11/07 05:00:56;;;;;;;2.67;1.73;;;11.50;99.90;;;;;;5070401;28;20063;-70
2021/11/07 05:03:22;;;;;;;4.80;2.03;;;11.40;99.90;;;;;;5070314;28;20073;-70
2021/11/07 05:05:48;;;;;;;2.97;1.63;;;11.40;99.90;;;;;;5069170;28;20024;-70
2021/11/07 05:08:13;;;;;;;3.35;1.90;;;11.40;99.90;;;;;;5070472;28;20025;-70
2021/11/07 05:10:39;;;;;;;1.73;1.60;;;11.40;99.90;;;;;;5070058;28;20109;-70
2021/11/07 05:13:05;;;;;;;2.35;1.77;;;11.50;99.90;;;;;;5070631;28;20025;-69
2021/11/07 05:15:31;;;;;;;2.35;1.80;;;11.50;99.80;;;;;;5070154;28;20451;-70
2021/11/07 05:17:57;;;;;;;1.73;1.58;;;11.50;99.90;;;;;;5070159;28;20039;-70
2021/11/07 05:20:23;;;;;;;3.15;1.27;;;11.50;99.90;;;;;;5073528;28;20025;-70
2021/11/07 05:22:50;;;;;;;1.50;1.20;;;11.50;99.90;;;;;;5073658;28;20028;-70
2021/11/07 05:25:16;;;;;;;3.30;1.45;;;11.50;99.80;;;;;;5074096;28;20025;-69
2021/11/07 05:27:42;;;;;;;1.58;1.48;;;11.50;99.70;;;;;;5073648;28;20037;-69
2021/11/07 05:30:10;;;;;;;1.95;1.25;;;11.50;99.50;;;;;;5073481;28;20040;-69
2021/11/07 05:32:36;;;;;;;2.22;1.55;;;11.50;99.50;;;;;;5073344;28;20043;-69
2021/11/07 05:35:03;;;;;;;3.38;1.52;;;11.60;99.50;;;;;;5073513;28;20036;-70
2021/11/07 05:37:28;;;;;;;1.48;1.27;;;11.50;99.50;;;;;;5074092;28;20136;-70
2021/11/07 05:39:54;;;;;;;1.88;1.15;;;11.60;99.40;;;;;;5073615;28;20525;-69
2021/11/07 05:42:21;;;;;;;1.38;1.10;;;11.60;99.40;;;;;;5072457;28;20044;-70
2021/11/07 05:44:47;;;;;;;2.03;1.20;;;11.50;99.40;;;;;;5073594;28;20021;-69
2021/11/07 05:47:15;;;;;;;1.92;1.20;;;11.50;99.30;;;;;;5072272;28;20508;-70
2021/11/07 05:49:41;;;;;;;1.60;1.35;;;11.60;99.30;;;;;;5073298;28;20028;-70
2021/11/07 05:52:07;;;;;;;3.47;1.42;;;11.50;99.20;;;;;;5073442;28;20369;-69
2021/11/07 05:54:32;;;;;;;2.47;1.50;;;11.60;99.20;;;;;;5073276;28;20032;-69
2021/11/07 05:57:00;;;;;;;2.33;1.80;;;11.60;99.10;;;;;;5072860;28;20028;-69
2021/11/07 05:59:26;;;;;;;3.17;1.67;;;11.60;99.10;;;;;;5072083;28;20025;-69
2021/11/07 06:01:52;;;;;;;4.32;1.60;;;11.60;99.10;;;;;;5073139;28;20032;-71
2021/11/07 06:04:18;;;;;;;4.55;2.00;;;11.70;99.10;;;;;;5073292;28;20357;-70
2021/11/07 06:06:43;;;;;;;5.90;2.38;;;11.70;99.10;;;;;;5073050;28;20144;-70
2021/11/07 06:09:11;;;;;;;5.38;2.10;;;11.60;99.20;;;;;;5072773;28;20040;-71
2021/11/07 06:11:37;;;;;;;3.45;2.50;;;11.60;99.20;;;;;;5072555;28;20044;-70
2021/11/07 06:14:03;;;;;;;3.10;2.28;;;11.60;99.30;;;;;;5072793;28;20033;-70
2021/11/07 06:16:43;;;;;;;4.65;2.22;;;11.70;99.30;;;;;;5072982;28;20020;-69
2021/11/07 06:19:09;;;;;;;8.82;2.95;;;11.70;99.20;;;;;;5072695;28;20262;-69
2021/11/07 06:21:36;;;;;;;3.90;2.58;;;11.70;99.20;;;;;;5072962;28;20040;-70
2021/11/07 06:24:04;;;;;;;5.47;2.30;;;11.80;99.20;;;;;;5072499;28;20043;-70
2021/11/07 06:26:30;;;;;;;5.95;2.25;;;11.70;99.10;;;;;;5072653;28;20532;-70
2021/11/07 06:29:19;;;;;;;4.30;1.85;;;11.60;98.90;;;;;;5072643;28;20108;-70
2021/11/07 06:31:44;;;;;;;8.07;2.08;;;11.70;99.00;;;;;;5072067;28;20055;-70
2021/11/07 06:34:10;;;;;;;4.70;2.17;;;11.70;98.80;;;;;;5073081;28;20349;-70
2021/11/07 06:36:36;;;;;;;12.38;2.20;;;11.70;98.60;;;;;;5072154;28;20033;-70
2021/11/07 06:39:02;;;;;;;7.55;2.08;;;11.80;98.50;;;;;;5072197;28;20025;-70
2021/11/07 06:41:28;;;;;;;8.02;2.15;;;11.70;98.40;;;;;;5072381;28;20029;-70
2021/11/07 06:43:54;;;;;;;16.67;2.78;;;11.70;98.40;;;;;;5072147;28;20107;-70
2021/11/07 06:46:22;;;;;;;17.95;2.55;;;11.80;98.40;;;;;;5072361;28;20365;-69
2021/11/07 06:48:48;;;;;;;7.38;2.08;;;11.80;98.30;;;;;;5072028;28;20028;-69
2021/11/07 06:51:13;;;;;;;14.60;2.58;;;11.80;98.30;;;;;;5071831;28;20036;-70
2021/11/07 06:53:42;;;;;;;9.70;2.50;;;11.80;98.30;;;;;;5071964;28;20036;-70
2021/11/07 06:56:08;;;;;;;13.35;2.67;;;11.80;98.30;;;;;;5072478;28;20031;-70
2021/11/07 06:58:34;;;;;;;9.20;2.13;;;11.70;98.30;;;;;;5072193;28;20071;-69
2021/11/07 07:00:59;;;;;;;14.73;2.42;;;11.70;98.30;;;;;;5072010;28;20668;-69
2021/11/07 07:03:25;;;;;;;10.75;2.35;;;11.70;98.20;;;;;;5071714;28;20028;-70
2021/11/07 07:05:51;;;;;;;11.52;2.53;;;11.80;98.20;;;;;;5071799;28;20028;-70
2021/11/07 07:08:23;;;;;;;7.22;2.00;;;11.80;98.10;;;;;;5071695;28;20107;-70
2021/11/07 07:11:12;;;;;;;11.95;1.65;;;11.80;98.00;;;;;;5071169;28;20374;-70
2021/11/07 07:13:43;;;;;;;11.32;2.47;;;11.80;97.80;;;;;;5071124;28;20101;-70
2021/11/07 07:21:33;;;;;;;11.35;1.85;;;11.70;97.70;;;;;;5071683;28;20033;-69
2021/11/07 07:24:39;;;;;;;13.88;2.15;;;11.70;97.80;;;;;;5071341;28;20032;-70
2021/11/07 07:32:22;;;;;;;8.98;2.10;;;11.80;97.80;;;;;;5071599;28;20020;-70
2021/11/07 07:34:52;;;;;;;;;;;11.80;97.80;;;;;;5071737;28;20311;-69
2021/11/07 07:37:17;;;;;;;8.90;1.65;;;11.80;97.90;;;;;;5071732;28;19950;-70
2021/11/07 07:39:43;;;;;;;6.55;2.03;;;11.80;97.90;;;;;;5071114;28;20315;-70
2021/11/07 07:42:09;;;;;;;8.73;1.77;;;11.90;97.90;;;;;;5070771;28;20123;-70
2021/11/07 07:44:35;;;;;;;7.55;2.00;;;11.90;97.90;;;;;;5053581;28;20048;-71
2021/11/07 07:47:01;;;;;;;13.40;2.85;;;11.90;97.90;;;;;;5051382;28;20032;-82
2021/11/07 07:49:27;;;;;;;4.53;1.70;;;12.00;97.90;;;;;;5051918;28;20060;-71
2021/11/07 07:51:55;;;;;;;14.85;2.15;;;12.00;97.90;;;;;;5051406;28;20170;-72
2021/11/07 07:54:21;;;;;;;9.05;1.98;;;12.00;97.90;;;;;;5051487;28;20489;-71
2021/11/07 07:56:46;;;;;;;11.55;2.28;;;12.00;97.90;;;;;;5051064;28;20049;-72
2021/11/07 07:59:12;;;;;;;9.90;2.30;;;12.00;97.80;;;;;;5049897;28;20416;-74
2021/11/07 08:01:37;;;;;;;7.20;2.40;;;11.90;97.90;;;;;;5050003;28;20036;-72
2021/11/07 08:04:03;;;;;;;14.75;2.17;;;12.00;97.90;;;;;;5051449;28;20332;-72
2021/11/07 08:06:29;;;;;;;5.60;2.50;;;12.00;97.90;;;;;;5050993;28;20324;-71
2021/11/07 08:08:55;;;;;;;12.38;2.63;;;12.00;97.90;;;;;;5051114;28;20040;-72
2021/11/07 08:11:22;;;;;;;8.90;2.33;;;12.00;97.90;;;;;;5050678;28;20416;-71
2021/11/07 08:13:50;;;;;;;10.90;2.30;;;12.00;97.80;;;;;;5050505;28;20417;-70
2021/11/07 08:16:16;;;;;;;7.20;2.20;;;12.00;97.80;;;;;;5051360;28;20017;-74
2021/11/07 08:18:42;;;;;;;14.75;2.67;;;12.10;97.90;;;;;;5050888;28;20501;-73
2021/11/07 08:21:08;;;;;;;8.10;2.05;;;12.30;97.90;;;;;;5049952;28;20040;-74
2021/11/07 08:23:33;;;;;;;11.80;2.53;;;12.30;97.70;;;;;;5050541;28;20029;-70
2021/11/07 08:26:01;;;;;;;10.65;2.95;;;12.20;97.70;;;;;;5051173;28;20064;-71
2021/11/07 08:28:27;;;;;;;;;;;12.20;97.60;;;;;;5051516;28;20049;-71
2021/11/07 08:30:56;;;;;;;14.38;3.05;;;12.20;97.70;;;;;;5050724;28;19947;-72
2021/11/07 08:33:22;;;;;;;12.52;2.60;;;12.30;97.80;;;;;;5052264;28;20018;-71
2021/11/07 08:35:49;;;;;;;13.70;2.60;;;12.30;97.60;;;;;;5040411;28;20055;-72
2021/11/07 08:38:20;;;;;;;13.38;2.42;;;12.30;97.50;;;;;;5071447;28;20028;-70
2021/11/07 08:40:51;;;;;;;9.00;2.15;;;12.30;97.50;;;;;;5071686;28;20044;-71
2021/11/07 09:00:16;;;;;;;8.00;2.40;;;12.10;97.40;;;;;;5073229;28;20440;-72
2021/11/07 09:05:59;;;;;;;19.13;2.95;;;12.20;97.50;;;;;;5071316;28;20120;-71
2021/11/07 09:08:15;;;;;;;12.70;2.50;;;12.10;97.40;;;;;;5074752;28;20421;-71
2021/11/07 09:10:42;;;;;;;12.73;2.53;;;12.10;97.30;;;;;;5075381;28;20546;-70
2021/11/07 09:13:10;;;;;;;15.53;3.20;;;12.00;97.30;;;;;;5066370;28;20114;-70
2021/11/07 09:15:39;;;;;;;15.65;3.83;;;12.00;97.20;;;;;;5074983;28;20411;-72
2021/11/07 09:18:05;;;;;;;12.20;2.55;;;12.00;97.20;;;;;;5075012;28;20093;-72
2021/11/07 09:20:44;;;;;;;16.85;2.88;;;12.00;97.40;;;;;;5066735;28;20048;-71
2021/11/07 09:23:17;;;;;;;15.77;3.42;;;12.00;97.00;;;;;;5075049;28;20465;-72
2021/11/07 09:34:05;;;;;;;13.98;3.17;;;12.10;96.90;;;;;;5066743;28;20029;-72
2021/11/07 09:36:38;;;;;;;18.98;3.72;;;12.10;96.90;;;;;;5072651;28;20033;-71
2021/11/07 09:39:49;;;;;;;12.40;2.72;;;12.10;96.80;;;;;;5074496;28;20036;-71
2021/11/07 09:44:43;;;;;;;20.20;3.83;;;12.20;96.90;;;;;;5065380;28;20040;-72
2021/11/07 09:47:11;;;;;;;22.20;3.83;;;12.30;96.30;;;;;;5044930;28;20301;-71
2021/11/07 09:49:47;;;;;;;18.60;2.90;;;12.50;95.90;;;;;;5053847;28;20032;-71
2021/11/07 09:52:23;;;;;;;20.25;5.10;;;12.60;95.80;;;;;;5054050;28;20021;-71
2021/11/07 09:54:57;;;;;;;19.83;3.70;;;12.50;95.40;;;;;;5053842;28;20052;-71
2021/11/07 09:57:24;;;;;;;14.15;3.20;;;12.60;95.60;;;;;;5053674;28;20036;-70
2021/11/07 09:59:56;;;;;;;13.77;2.97;;;12.60;95.30;;;;;;5053866;28;20332;-70
2021/11/07 10:02:23;;;;;;;21.95;3.33;;;12.60;95.20;;;;;;5053678;28;20033;-70
2021/11/07 10:04:50;;;;;;;15.20;3.45;;;12.60;95.10;;;;;;5053260;28;20025;-73
2021/11/07 10:07:24;;;;;;;13.15;3.42;;;12.60;94.90;;;;;;5053107;28;20025;-74
2021/11/07 10:09:57;;;;;;;19.85;3.83;;;12.70;94.90;;;;;;5053857;28;20041;-74
2021/11/07 10:12:34;;;;;;;15.52;2.88;;;12.80;94.80;;;;;;5053281;28;20306;-70
2021/11/07 10:15:03;;;;;;;18.85;3.90;;;12.70;94.60;;;;;;5053629;28;20114;-71
2021/11/07 10:17:44;;;;;;;19.30;3.35;;;12.80;94.40;;;;;;5053270;28;20493;-71
2021/11/07 10:20:25;;;;;;;23.23;3.95;;;12.90;94.40;;;;;;5053370;28;20094;-71
2021/11/07 10:23:02;;;;;;;21.00;3.55;;;13.30;94.70;;;;;;5053404;28;20036;-71
2021/11/07 10:25:34;;;;;;;16.58;3.50;;;13.50;93.70;;;;;;5053321;28;20101;-70
2021/11/07 10:28:00;;;;;;;15.65;3.22;;;13.40;93.40;;;;;;5052972;28;20348;-75
2021/11/07 10:30:28;;;;;;;18.65;3.13;;;13.90;93.10;;;;;;5053456;28;20036;-74
2021/11/07 10:33:27;;;;;;;18.45;3.30;;;13.90;93.00;;;;;;5053596;28;20114;-73
2021/11/07 10:36:04;;;;;;;14.85;2.42;;;13.80;92.40;;;;;;5053083;28;20083;-72
2021/11/07 10:52:38;;;;;;;20.85;2.92;;;13.80;91.20;;;;;;5052654;28;20055;-71
2021/11/07 10:55:15;;;;;;;17.92;3.35;;;13.60;91.20;;;;;;5053333;28;20033;-69
2021/11/07 10:58:03;;;;;;;17.65;3.35;;;13.70;91.40;;;;;;5052577;28;20427;-69
2021/11/07 11:00:32;;;;;;;14.10;2.60;;;13.60;91.20;;;;;;5051247;28;20044;-71
2021/11/07 11:03:09;;;;;;;14.55;2.63;;;13.60;91.20;;;;;;5052326;28;20112;-71
2021/11/07 11:08:38;;;;;;;14.02;2.38;;;14.00;90.90;;;;;;5051950;28;20426;-71
2021/11/07 11:13:53;;;;;;;12.77;2.58;;;14.40;90.10;;;;;;5052180;28;20044;-71
2021/11/07 11:16:50;;;;;;;13.20;2.88;;;14.20;89.30;;;;;;5050135;28;20462;-70
2021/11/07 11:29:50;;;;;;;18.90;3.42;;;14.40;90.00;;;;;;5051802;28;20032;-72
2021/11/07 11:32:20;;;;;;;15.90;2.53;;;14.70;89.80;;;;;;5051611;28;20469;-74
2021/11/07 11:34:54;;;;;;;13.95;3.97;;;15.00;87.00;;;;;;5051761;28;20051;-70
2021/11/07 11:42:57;;;;;;;18.70;3.05;;;15.10;85.10;;;;;;5042765;28;20071;-74
2021/11/07 11:45:27;;;;;;;15.57;2.97;;;15.10;85.70;;;;;;5051420;28;20359;-71
2021/11/07 11:48:05;;;;;;;17.42;2.83;;;14.80;84.40;;;;;;5051474;28;20075;-71
2021/11/07 11:58:12;;;;;;;;;;;;;;;;;;;;;
2021/11/07 12:01:13;;;;;;;18.20;2.83;;;14.20;86.40;;;;;;5051093;28;20036;-71
2021/11/07 12:06:49;;;;;;;20.50;2.78;;;14.00;86.20;;;;;;5051066;28;20123;-71
2021/11/07 12:09:40;;;;;;;11.30;2.45;;;14.30;86.60;;;;;;5042765;28;20136;-72
2021/11/07 12:12:20;;;;;;;15.63;2.50;;;14.50;86.30;;;;;;5050803;28;20045;-72
2021/11/07 12:15:03;;;;;;;19.55;3.13;;;14.50;85.80;;;;;;5050954;28;20063;-71
2021/11/07 12:17:39;;;;;;;22.35;3.30;;;14.40;85.90;;;;;;5050945;28;20118;-71
2021/11/07 12:20:44;;;;;;;19.00;3.05;;;14.60;86.10;;;;;;5050794;28;20103;-71
2021/11/07 12:23:17;;;;;;;10.45;2.40;;;14.60;85.60;;;;;;5050930;28;20026;-71
2021/11/07 12:25:44;;;;;;;12.85;2.53;;;14.70;85.80;;;;;;5050785;28;20025;-72
2021/11/07 12:28:12;;;;;;;10.65;2.95;;;14.60;85.90;;;;;;5052946;28;20021;-71
2021/11/07 12:30:39;;;;;;;10.68;2.72;;;14.40;85.70;;;;;;5054939;28;20029;-71
2021/11/07 12:33:17;;;;;;;14.23;2.97;;;14.40;85.80;;;;;;5054626;28;20041;-72
2021/11/07 12:36:08;;;;;;;10.38;2.22;;;14.40;86.00;;;;;;5054687;28;20040;-72
2021/11/07 12:41:28;;;;;;;15.95;2.45;;;14.40;84.10;;;;;;5054732;28;20071;-71
2021/11/07 12:44:01;;;;;;;10.40;1.90;;;14.10;82.70;;;;;;5054452;28;20040;-72
2021/11/07 12:49:06;;;;;;;15.30;2.45;;;14.00;82.80;;;;;;5054794;28;20059;-72
2021/11/07 12:51:38;;;;;;;15.85;2.30;;;14.20;83.10;;;;;;5053207;28;20025;-73
2021/11/07 12:54:07;;;;;;;13.75;2.40;;;14.10;82.90;;;;;;5054763;28;20205;-71
2021/11/07 12:56:35;;;;;;;15.20;2.90;;;14.10;82.90;;;;;;5054603;28;20036;-71
2021/11/07 12:59:05;;;;;;;11.20;2.40;;;14.30;83.20;;;;;;5054728;28;20036;-72
2021/11/07 13:01:31;;;;;;;9.82;1.83;;;14.30;83.10;;;;;;5054478;28;20059;-70
2021/11/07 13:04:02;;;;;;;8.65;1.80;;;14.30;83.40;;;;;;5054826;28;20422;-70
2021/11/07 13:06:36;;;;;;;14.55;2.58;;;14.50;83.50;;;;;;5054179;28;20421;-71
2021/11/07 13:09:04;;;;;;;12.52;2.10;;;14.40;83.70;;;;;;5054565;28;20116;-70
2021/11/07 13:11:44;;;;;;;10.15;1.85;;;14.40;83.40;;;;;;5054286;28;20045;-71
2021/11/07 13:14:21;;;;;;;13.00;1.80;;;14.20;83.60;;;;;;5054269;28;20029;-70
2021/11/07 13:17:22;;;;;;;15.90;2.50;;;14.40;84.00;;;;;;5054256;28;20503;-70
2021/11/07 13:20:15;;;;;;;11.55;2.08;;;14.30;83.00;;;;;;5053841;28;20254;-71
2021/11/07 13:26:16;;;;;;;13.63;2.57;;;14.20;83.90;;;;;;5053097;28;20029;-74
2021/11/07 13:28:45;;;;;;;25.25;2.80;;;14.00;83.90;;;;;;5054001;28;20307;-72
2021/11/07 13:31:23;;;;;;;17.65;2.85;;;14.00;83.90;;;;;;5054417;28;20025;-71
2021/11/07 13:33:48;;;;;;;;;;;14.00;83.90;;;;;;5054619;28;20041;-71
2021/11/07 13:36:19;;;;;;;15.95;2.40;;;13.70;84.30;;;;;;5053630;28;19920;-70
2021/11/07 13:38:46;;;;;;;15.70;2.70;;;13.70;84.70;;;;;;5053708;28;20029;-71
2021/11/07 13:41:15;;;;;;;14.10;2.40;;;13.50;84.80;;;;;;5051978;28;20363;-72
2021/11/07 13:43:48;;;;;;;15.80;2.10;;;13.60;85.40;;;;;;5053918;28;20035;-72
2021/11/07 13:46:14;;;;;;;16.30;2.42;;;13.40;85.40;;;;;;5054319;28;20036;-72
2021/11/07 13:48:40;;;;;;;10.23;1.92;;;13.30;85.70;;;;;;5053783;28;20378;-72
2021/11/07 13:51:06;;;;;;;15.93;2.70;;;13.40;86.20;;;;;;5053091;28;20021;-73
2021/11/07 13:53:35;;;;;;;16.13;3.03;;;13.30;86.20;;;;;;5053531;28;20167;-73
2021/11/07 13:56:07;;;;;;;15.48;2.92;;;13.30;86.40;;;;;;5053904;28;20017;-73
2021/11/07 13:58:35;;;;;;;24.20;3.45;;;13.30;86.30;;;;;;5053914;28;20033;-73
2021/11/07 14:01:05;;;;;;;18.42;3.22;;;13.30;86.40;;;;;;5053965;28;20096;-72
2021/11/07 14:03:30;;;;;;;12.98;2.53;;;13.10;86.40;;;;;;5053322;28;20112;-72
2021/11/07 14:06:11;;;;;;;11.18;2.40;;;13.10;86.40;;;;;;5053124;28;20124;-71
2021/11/07 14:08:55;;;;;;;9.15;1.67;;;13.10;86.40;;;;;;5053404;28;20037;-71
2021/11/07 14:11:22;;;;;;;10.63;1.92;;;13.10;86.30;;;;;;5053020;28;20128;-70
2021/11/07 14:13:56;;;;;;;15.52;1.95;;;12.90;85.90;;;;;;5053051;28;20033;-71
2021/11/07 14:16:45;;;;;;;13.85;2.50;;;12.80;86.90;;;;;;5068847;28;20053;-71
2021/11/07 14:19:12;;;;;;;9.57;2.25;;;12.70;88.00;;;;;;5053170;28;20017;-72
2021/11/07 14:21:44;;;;;;;15.57;1.40;;;12.80;87.70;;;;;;5053021;28;20106;-71
2021/11/07 14:24:20;;;;;;;7.70;1.05;;;12.70;87.00;;;;;;5053182;28;20142;-72
2021/11/07 14:27:17;;;;;;;4.80;1.15;;;12.50;86.30;;;;;;5052949;28;20033;-71
2021/11/07 14:29:40;;;;;;;6.88;1.50;;;12.30;86.60;;;;;;5052453;28;20037;-70
2021/11/07 14:32:21;;;;;;;5.07;1.20;;;12.30;87.00;;;;;;5052865;28;20476;-72
2021/11/07 14:35:11;;;;;;;8.00;1.33;;;12.30;87.10;;;;;;5052707;28;20032;-71
2021/11/07 14:37:50;;;;;;;6.93;1.30;;;12.20;87.30;;;;;;5052601;28;20164;-70
2021/11/07 14:40:27;;;;;;;9.77;1.50;;;12.20;87.50;;;;;;5053244;28;20121;-71
2021/11/07 14:43:13;;;;;;;7.70;1.63;;;12.20;87.70;;;;;;5052765;28;20041;-71
2021/11/07 14:48:39;;;;;;;3.65;1.23;;;12.20;88.10;;;;;;5052660;28;20656;-70
2021/11/07 14:51:25;;;;;;;8.05;1.52;;;12.10;88.20;;;;;;5051123;28;20359;-70
2021/11/07 14:54:02;;;;;;;12.57;1.60;;;12.00;88.60;;;;;;5052642;28;20136;-70
2021/11/07 14:59:36;;;;;;;9.23;1.73;;;11.90;89.60;;;;;;5052559;28;20048;-70
2021/11/07 15:05:06;;;;;;;7.95;1.35;;;11.60;90.40;;;;;;5051926;28;20040;-71
2021/11/07 15:07:52;;;;;;;8.98;1.30;;;11.60;90.80;;;;;;5052322;28;20017;-70
2021/11/07 15:10:40;;;;;;;7.28;1.77;;;11.60;90.80;;;;;;5052208;28;20050;-70
2021/11/07 15:13:32;;;;;;;6.25;1.52;;;11.50;91.00;;;;;;5051588;28;20029;-70
2021/11/07 15:21:16;;;;;;;12.80;1.95;;;11.60;91.10;;;;;;5052076;28;20112;-72